Nagaleader — VRDD5 — position and weather

sailwx.info

Track history (hours):
 
Tides and Currents Weather Stations Pressure Air Temp Water Temp Dewpoint Dewpoint Depression Visibility Wind Speed Wind Dir Waves Ship Positions

Nagaleader

Last reported at 2016-Jul-27 09:33 UTC. Time now 2016-Jul-27 09:39 UTC.
Position N 26°00' E 119°29'.

Length 113 m; draft 6.9 m.

Type: Cargo ship. MMSI: 477926700.

Date/timePositionNaut miles runAvg speedWind from/ knotsBaromVisibWave heightAir tempDewpointWater temp
2016-Jul-27 09:33N 26°00' E 119°29'0 0.1
2016-Jul-27 08:34N 26°00' E 119°29'0 0.0
2016-Jul-27 07:33N 26°00' E 119°29'0 0.1
2016-Jul-27 06:34N 26°00' E 119°29'0 0.0
2016-Jul-27 05:34N 26°00' E 119°29'197 9.4
2016-Jul-26 08:33N 22°46' E 120°07'1212.5
2016-Jul-26 07:33N 22°35' E 120°12'6 6.2
2016-Jul-26 06:33N 22°34' E 120°19'0 0.0
2016-Jul-26 05:33N 22°34' E 120°19'0 0.0
2016-Jul-26 04:31N 22°34' E 120°19'0 0.0
2016-Jul-26 03:33N 22°34' E 120°19'0 0.0
2016-Jul-26 02:31N 22°34' E 120°19'0 0.0
2016-Jul-26 01:32N 22°34' E 120°19'0 0.0
2016-Jul-26 00:31N 22°34' E 120°19'0 0.0
2016-Jul-25 23:33N 22°34' E 120°19'1 0.2
2016-Jul-25 16:32N 22°33' E 120°20'5 5.0
2016-Jul-25 15:34N 22°32' E 120°15'1110.8
2016-Jul-25 14:33N 22°41' E 120°08'5012.1
2016-Jul-25 10:22N 23°30' E 119°55'1112.2
2016-Jul-25 09:26N 23°42' E 119°55'1011.6
2016-Jul-25 08:33N 23°52' E 119°55'1111.3
2016-Jul-25 07:33N 24°03' E 119°56'12310.3
2016-Jul-24 19:32N 26°05' E 119°31'5 5.1
2016-Jul-24 18:33N 26°00' E 119°29'0 0.0
2016-Jul-24 17:32N 26°00' E 119°29'0 0.0
2016-Jul-24 16:28N 26°00' E 119°29'0 0.0
2016-Jul-24 15:28N 26°00' E 119°29'0 0.0
2016-Jul-24 14:22N 26°00' E 119°29'0 0.0
2016-Jul-24 13:28N 26°00' E 119°29'0 0.0
2016-Jul-24 12:28N 26°00' E 119°29'0 0.0
2016-Jul-24 11:28N 26°00' E 119°29'0 0.0
2016-Jul-24 10:28N 26°00' E 119°29'0 0.0
2016-Jul-24 09:16N 26°00' E 119°29'0 0.0
2016-Jul-24 08:28N 26°00' E 119°29'0 0.0
2016-Jul-24 07:22N 26°00' E 119°29'0 0.0
2016-Jul-24 06:28N 26°00' E 119°29'0 0.0
2016-Jul-24 04:22N 26°00' E 119°29'0 0.0
2016-Jul-24 03:28N 26°00' E 119°29'0 0.0
2016-Jul-24 02:28N 26°00' E 119°29'0 0.0
2016-Jul-24 01:33N 26°00' E 119°29'0 0.0
2016-Jul-24 00:31N 26°00' E 119°29'2 1.7
2016-Jul-23 23:33N 26°02' E 119°30'14610.8
2016-Jul-23 10:05N 23°38' E 119°56'6311.4
2016-Jul-23 04:33N 22°37' E 120°16'4 4.3
2016-Jul-23 03:33N 22°34' E 120°19'0 0.0
2016-Jul-23 02:33N 22°34' E 120°19'0 0.0
2016-Jul-23 01:33N 22°34' E 120°19'0 0.0
2016-Jul-23 00:33N 22°34' E 120°19'0 0.0
2016-Jul-22 23:33N 22°34' E 120°19'0 0.0
2016-Jul-22 22:33N 22°34' E 120°19'0 0.0
2016-Jul-22 21:33N 22°34' E 120°19'0 0.0
2016-Jul-22 20:33N 22°34' E 120°19'0 0.0
2016-Jul-22 19:33N 22°34' E 120°19'0 0.0
2016-Jul-22 18:33N 22°34' E 120°19'0 0.0
2016-Jul-22 17:33N 22°34' E 120°19'0 0.0
2016-Jul-22 16:33N 22°34' E 120°19'0 0.0
2016-Jul-22 15:29N 22°34' E 120°19'4 4.0
2016-Jul-22 14:33N 22°32' E 120°15'1110.6
2016-Jul-22 13:33N 22°41' E 120°08'3511.7
2016-Jul-22 10:33N 23°14' E 119°57'1212.0
2016-Jul-22 09:33N 23°26' E 119°56'1212.0
2016-Jul-22 08:33N 23°38' E 119°56'15010.7
2016-Jul-21 18:33N 26°07' E 119°34'8 8.2
2016-Jul-21 17:34N 26°00' E 119°29'0 0.0
2016-Jul-21 16:28N 26°00' E 119°29'0 0.0
2016-Jul-21 15:29N 26°00' E 119°29'0 0.0
2016-Jul-21 14:17N 26°00' E 119°29'0 0.0
2016-Jul-21 13:29N 26°00' E 119°29'0 0.0
2016-Jul-21 12:23N 26°00' E 119°29'0 0.0
2016-Jul-21 11:05N 26°00' E 119°29'0 0.0
2016-Jul-21 10:29N 26°00' E 119°29'0 0.0
2016-Jul-21 09:29N 26°00' E 119°29'0 0.0
2016-Jul-21 08:17N 26°00' E 119°29'0 0.0
2016-Jul-21 07:29N 26°00' E 119°29'0 0.0
2016-Jul-21 06:29N 26°00' E 119°29'0 0.0
2016-Jul-21 04:29N 26°00' E 119°29'0 0.0
2016-Jul-21 03:23N 26°00' E 119°29'0 0.0
2016-Jul-21 02:29N 26°00' E 119°29'0 0.0
2016-Jul-21 01:33N 26°00' E 119°29'14210.1
2016-Jul-20 11:29N 23°41' E 119°56'5313.0
2016-Jul-20 07:27N 22°49' E 120°05'1112.3
2016-Jul-20 06:33N 22°39' E 120°10'1010.0
2016-Jul-20 05:33N 22°33' E 120°19'1 0.1
2016-Jul-19 13:29N 22°33' E 120°20'8 8.0
2016-Jul-19 12:29N 22°34' E 120°11'1112.2
2016-Jul-19 11:33N 22°45' E 120°07'20410.7
2016-Jul-18 16:27N 26°07' E 119°33'8 7.5
2016-Jul-18 15:27N 26°00' E 119°29'0 0.0
2016-Jul-18 14:30N 26°00' E 119°29'0 0.0
2016-Jul-18 13:30N 26°00' E 119°29'0 0.0
2016-Jul-18 12:33N 26°00' E 119°29'0 0.0
2016-Jul-18 11:33N 26°00' E 119°29'0 0.0
2016-Jul-18 10:33N 26°00' E 119°29'0 0.0
2016-Jul-18 09:33N 26°00' E 119°29'0 0.0
2016-Jul-18 08:33N 26°00' E 119°29'0 0.1
2016-Jul-18 07:33N 26°00' E 119°29'0 0.1
2016-Jul-18 06:33N 26°00' E 119°29'0 0.0
2016-Jul-18 05:33N 26°00' E 119°29'0 0.0
2016-Jul-18 04:31N 26°00' E 119°29'0 0.0
2016-Jul-18 03:33N 26°00' E 119°29'0 0.0
2016-Jul-18 02:32N 26°00' E 119°29'0 0.0
2016-Jul-18 01:33N 26°00' E 119°29'0 0.0
2016-Jul-18 00:32N 26°00' E 119°29'0 0.1
2016-Jul-17 23:33N 26°00' E 119°29'0 0.1
2016-Jul-17 22:33N 26°00' E 119°29'  
Track history (hours):
 
Tides and Currents Weather Stations Pressure Air Temp Water Temp Dewpoint Dewpoint Depression Visibility Wind Speed Wind Dir Waves Ship Positions

Nagaleader

Last reported at 2016-Jul-27 09:33 UTC. Time now 2016-Jul-27 09:39 UTC.
Position N 26°00' E 119°29'.

Length 113 m; draft 6.9 m.

Type: Cargo ship. MMSI: 477926700.

Date/timePositionNaut miles runAvg speedWind from/ knotsBaromVisibWave heightAir tempDewpointWater temp
2016-Jul-27 09:33N 26°00' E 119°29'0 0.1
2016-Jul-27 08:34N 26°00' E 119°29'0 0.0
2016-Jul-27 07:33N 26°00' E 119°29'0 0.1
2016-Jul-27 06:34N 26°00' E 119°29'0 0.0
2016-Jul-27 05:34N 26°00' E 119°29'197 9.4
2016-Jul-26 08:33N 22°46' E 120°07'1212.5
2016-Jul-26 07:33N 22°35' E 120°12'6 6.2
2016-Jul-26 06:33N 22°34' E 120°19'0 0.0
2016-Jul-26 05:33N 22°34' E 120°19'0 0.0
2016-Jul-26 04:31N 22°34' E 120°19'0 0.0
2016-Jul-26 03:33N 22°34' E 120°19'0 0.0
2016-Jul-26 02:31N 22°34' E 120°19'0 0.0
2016-Jul-26 01:32N 22°34' E 120°19'0 0.0
2016-Jul-26 00:31N 22°34' E 120°19'0 0.0
2016-Jul-25 23:33N 22°34' E 120°19'1 0.2
2016-Jul-25 16:32N 22°33' E 120°20'5 5.0
2016-Jul-25 15:34N 22°32' E 120°15'1110.8
2016-Jul-25 14:33N 22°41' E 120°08'5012.1
2016-Jul-25 10:22N 23°30' E 119°55'1112.2
2016-Jul-25 09:26N 23°42' E 119°55'1011.6
2016-Jul-25 08:33N 23°52' E 119°55'1111.3
2016-Jul-25 07:33N 24°03' E 119°56'12310.3
2016-Jul-24 19:32N 26°05' E 119°31'5 5.1
2016-Jul-24 18:33N 26°00' E 119°29'0 0.0
2016-Jul-24 17:32N 26°00' E 119°29'0 0.0
2016-Jul-24 16:28N 26°00' E 119°29'0 0.0
2016-Jul-24 15:28N 26°00' E 119°29'0 0.0
2016-Jul-24 14:22N 26°00' E 119°29'0 0.0
2016-Jul-24 13:28N 26°00' E 119°29'0 0.0
2016-Jul-24 12:28N 26°00' E 119°29'0 0.0
2016-Jul-24 11:28N 26°00' E 119°29'0 0.0
2016-Jul-24 10:28N 26°00' E 119°29'0 0.0
2016-Jul-24 09:16N 26°00' E 119°29'0 0.0
2016-Jul-24 08:28N 26°00' E 119°29'0 0.0
2016-Jul-24 07:22N 26°00' E 119°29'0 0.0
2016-Jul-24 06:28N 26°00' E 119°29'0 0.0
2016-Jul-24 04:22N 26°00' E 119°29'0 0.0
2016-Jul-24 03:28N 26°00' E 119°29'0 0.0
2016-Jul-24 02:28N 26°00' E 119°29'0 0.0
2016-Jul-24 01:33N 26°00' E 119°29'0 0.0
2016-Jul-24 00:31N 26°00' E 119°29'2 1.7
2016-Jul-23 23:33N 26°02' E 119°30'14610.8
2016-Jul-23 10:05N 23°38' E 119°56'6311.4
2016-Jul-23 04:33N 22°37' E 120°16'4 4.3
2016-Jul-23 03:33N 22°34' E 120°19'0 0.0
2016-Jul-23 02:33N 22°34' E 120°19'0 0.0
2016-Jul-23 01:33N 22°34' E 120°19'0 0.0
2016-Jul-23 00:33N 22°34' E 120°19'0 0.0
2016-Jul-22 23:33N 22°34' E 120°19'0 0.0
2016-Jul-22 22:33N 22°34' E 120°19'0 0.0
2016-Jul-22 21:33N 22°34' E 120°19'0 0.0
2016-Jul-22 20:33N 22°34' E 120°19'0 0.0
2016-Jul-22 19:33N 22°34' E 120°19'0 0.0
2016-Jul-22 18:33N 22°34' E 120°19'0 0.0
2016-Jul-22 17:33N 22°34' E 120°19'0 0.0
2016-Jul-22 16:33N 22°34' E 120°19'0 0.0
2016-Jul-22 15:29N 22°34' E 120°19'4 4.0
2016-Jul-22 14:33N 22°32' E 120°15'1110.6
2016-Jul-22 13:33N 22°41' E 120°08'3511.7
2016-Jul-22 10:33N 23°14' E 119°57'1212.0
2016-Jul-22 09:33N 23°26' E 119°56'1212.0
2016-Jul-22 08:33N 23°38' E 119°56'15010.7
2016-Jul-21 18:33N 26°07' E 119°34'8 8.2
2016-Jul-21 17:34N 26°00' E 119°29'0 0.0
2016-Jul-21 16:28N 26°00' E 119°29'0 0.0
2016-Jul-21 15:29N 26°00' E 119°29'0 0.0
2016-Jul-21 14:17N 26°00' E 119°29'0 0.0
2016-Jul-21 13:29N 26°00' E 119°29'0 0.0
2016-Jul-21 12:23N 26°00' E 119°29'0 0.0
2016-Jul-21 11:05N 26°00' E 119°29'0 0.0
2016-Jul-21 10:29N 26°00' E 119°29'0 0.0
2016-Jul-21 09:29N 26°00' E 119°29'0 0.0
2016-Jul-21 08:17N 26°00' E 119°29'0 0.0
2016-Jul-21 07:29N 26°00' E 119°29'0 0.0
2016-Jul-21 06:29N 26°00' E 119°29'0 0.0
2016-Jul-21 04:29N 26°00' E 119°29'0 0.0
2016-Jul-21 03:23N 26°00' E 119°29'0 0.0
2016-Jul-21 02:29N 26°00' E 119°29'0 0.0
2016-Jul-21 01:33N 26°00' E 119°29'14210.1
2016-Jul-20 11:29N 23°41' E 119°56'5313.0
2016-Jul-20 07:27N 22°49' E 120°05'1112.3
2016-Jul-20 06:33N 22°39' E 120°10'1010.0
2016-Jul-20 05:33N 22°33' E 120°19'1 0.1
2016-Jul-19 13:29N 22°33' E 120°20'8 8.0
2016-Jul-19 12:29N 22°34' E 120°11'1112.2
2016-Jul-19 11:33N 22°45' E 120°07'20410.7
2016-Jul-18 16:27N 26°07' E 119°33'8 7.5
2016-Jul-18 15:27N 26°00' E 119°29'0 0.0
2016-Jul-18 14:30N 26°00' E 119°29'0 0.0
2016-Jul-18 13:30N 26°00' E 119°29'0 0.0
2016-Jul-18 12:33N 26°00' E 119°29'0 0.0
2016-Jul-18 11:33N 26°00' E 119°29'0 0.0
2016-Jul-18 10:33N 26°00' E 119°29'0 0.0
2016-Jul-18 09:33N 26°00' E 119°29'0 0.0
2016-Jul-18 08:33N 26°00' E 119°29'0 0.1
2016-Jul-18 07:33N 26°00' E 119°29'0 0.1
2016-Jul-18 06:33N 26°00' E 119°29'0 0.0
2016-Jul-18 05:33N 26°00' E 119°29'0 0.0
2016-Jul-18 04:31N 26°00' E 119°29'0 0.0
2016-Jul-18 03:33N 26°00' E 119°29'0 0.0
2016-Jul-18 02:32N 26°00' E 119°29'0 0.0
2016-Jul-18 01:33N 26°00' E 119°29'0 0.0
2016-Jul-18 00:32N 26°00' E 119°29'0 0.1
2016-Jul-17 23:33N 26°00' E 119°29'0 0.1
2016-Jul-17 22:33N 26°00' E 119°29'  

Dump ship's entire track history